Time;durP1;ratioP1;P1;durP2;ratioP2;P2;SDS_P1;SDS_P2;PMS_P1;PMS_P2;Temp;Humidity;BMP_temperature;BMP_pressure;BME280_temperature;BME280_humidity;BME280_pressure;Samples;Min_cycle;Max_cycle;Signal;HPM_P1;HPM_P2
2022/01/18 00:01:50;;;;;;;0.30;0.20;;;;;;;7.52;44.28;95303.78;5091584;28;21052;-53
2022/01/18 00:04:19;;;;;;;0.50;0.40;;;;;;;7.52;43.24;95309.03;5091846;28;20932;-53
2022/01/18 00:06:52;;;;;;;0.30;0.20;;;;;;;7.50;44.35;95305.88;5090802;28;20463;-53
2022/01/18 00:09:40;;;;;;;0.30;0.20;;;;;;;7.72;43.24;95295.22;5091583;28;20494;-53
2022/01/18 00:12:31;;;;;;;1.07;1.07;;;;;;;7.83;44.62;95295.09;5091554;28;20436;-53
2022/01/18 00:20:41;;;;;;;0.30;0.20;;;;;;;6.10;45.62;95195.25;5090730;28;20476;-53
2022/01/18 00:23:43;;;;;;;0.40;0.30;;;;;;;7.07;50.87;95313.84;5091002;28;20543;-53
2022/01/18 00:26:14;;;;;;;0.40;0.30;;;;;;;6.98;51.45;95311.66;5091508;28;20877;-53
2022/01/18 00:28:49;;;;;;;0.30;0.20;;;;;;;6.60;47.27;95281.97;5093073;28;20505;-53
2022/01/18 00:32:01;;;;;;;0.30;0.30;;;;;;;6.95;44.63;95308.75;5094599;28;20505;-52
2022/01/18 00:34:39;;;;;;;0.30;0.20;;;;;;;7.29;56.79;95309.34;5095206;28;20438;-53
2022/01/18 00:40:09;;;;;;;0.30;0.20;;;;;;;7.23;44.29;95305.88;5094390;28;20447;-53
2022/01/18 00:42:39;;;;;;;0.30;0.20;;;;;;;7.44;44.34;95315.56;5095159;28;20486;-53
2022/01/18 00:45:07;;;;;;;0.30;0.20;;;;;;;7.41;44.29;95313.44;5095147;28;20468;-53
2022/01/18 00:47:37;;;;;;;0.30;0.20;;;;;;;6.69;43.59;95201.50;5094873;28;20524;-53
2022/01/18 00:50:06;;;;;;;0.30;0.30;;;;;;;7.15;49.07;95321.34;5094963;28;20428;-53
2022/01/18 00:52:39;;;;;;;0.30;0.20;;;;;;;7.08;43.53;95321.53;5095093;28;20924;-53
2022/01/18 00:55:27;;;;;;;0.30;0.20;;;;;;;6.42;44.11;95253.31;5094959;28;20475;-53
2022/01/18 00:58:04;;;;;;;0.30;0.20;;;;;;;6.70;44.36;95321.59;5093720;28;20464;-53
2022/01/18 01:00:33;;;;;;;0.30;0.20;;;;;;;7.23;53.25;95318.25;5094021;28;20476;-53
2022/01/18 01:03:03;;;;;;;0.30;0.20;;;;;;;7.14;44.12;95317.09;5094774;28;20432;-53
2022/01/18 01:05:34;;;;;;;0.30;0.20;;;;;;;5.97;43.72;95178.00;5095054;28;20424;-53
2022/01/18 01:08:03;;;;;;;0.30;0.20;;;;;;;7.18;44.87;95321.66;5094627;28;20472;-53
2022/01/18 01:10:32;;;;;;;0.30;0.20;;;;;;;7.28;43.10;95324.38;5094963;28;20432;-53
2022/01/18 01:13:03;;;;;;;0.50;0.40;;;;;;;7.59;47.95;95322.81;5094092;28;20878;-53
2022/01/18 01:15:39;;;;;;;0.30;0.20;;;;;;;7.37;45.90;95341.34;5094424;28;20428;-53
2022/01/18 01:35:08;;;;;;;0.30;0.20;;;;;;;6.78;44.87;95321.19;5093691;28;21176;-53
2022/01/18 01:46:02;;;;;;;0.30;0.20;;;;;;;6.63;48.76;95363.91;5093503;28;20479;-53
2022/01/18 01:48:31;;;;;;;0.30;0.20;;;;;;;6.38;48.30;95322.25;5093773;28;20468;-53
2022/01/18 01:53:41;;;;;;;0.30;0.20;;;;;;;6.69;54.58;95269.97;5090259;28;20466;-53
2022/01/18 01:56:10;;;;;;;0.30;0.20;;;;;;;7.11;48.27;95342.09;5093616;28;20507;-53
2022/01/18 01:58:38;;;;;;;0.30;0.20;;;;;;;6.88;51.49;95345.03;5093615;28;20446;-53
2022/01/18 02:01:09;;;;;;;0.30;0.20;;;;;;;7.01;48.96;95345.44;5093031;28;20478;-53
2022/01/18 02:03:38;;;;;;;0.30;0.20;;;;;;;6.05;49.82;95267.03;5093038;28;20449;-53
2022/01/18 02:06:07;;;;;;;0.30;0.20;;;;;;;6.90;49.83;95375.34;5093383;28;20431;-53
2022/01/18 02:08:36;;;;;;;0.30;0.20;;;;;;;6.11;47.67;95304.75;5093314;28;20523;-53
2022/01/18 02:11:04;;;;;;;0.30;0.20;;;;;;;7.06;47.64;95365.75;5093413;28;20416;-53
2022/01/18 02:13:34;;;;;;;0.30;0.20;;;;;;;7.33;46.64;95366.63;5093430;28;20472;-53
2022/01/18 02:21:51;;;;;;;0.30;0.23;;;;;;;7.12;50.85;95372.69;5093278;28;20490;-53
2022/01/18 02:24:21;;;;;;;0.30;0.20;;;;;;;6.78;46.93;95342.25;5093269;28;20420;-53
2022/01/18 02:26:49;;;;;;;0.30;0.20;;;;;;;5.52;47.47;95196.53;5093088;28;20498;-53
2022/01/18 02:29:19;;;;;;;0.30;0.20;;;;;;;6.12;47.26;95243.19;5093052;28;20468;-53
2022/01/18 02:31:49;;;;;;;0.30;0.20;;;;;;;6.56;46.49;95331.69;5093008;28;20432;-53
2022/01/18 02:34:20;;;;;;;0.30;0.20;;;;;;;6.54;47.50;95332.97;5092852;28;20428;-53
2022/01/18 02:36:53;;;;;;;0.30;0.20;;;;;;;6.33;49.66;95342.41;5092244;28;20932;-53
2022/01/18 02:39:23;;;;;;;0.30;0.20;;;;;;;6.19;47.38;95349.88;5092528;28;20443;-53
2022/01/18 02:41:57;;;;;;;3.50;0.47;;;;;;;6.53;47.33;95355.88;5092907;28;20467;-53
2022/01/18 02:44:27;;;;;;;0.30;0.20;;;;;;;6.54;52.87;95430.41;5093087;28;20880;-53
2022/01/18 02:46:56;;;;;;;0.30;0.20;;;;;;;6.59;47.99;95385.69;5092335;28;20461;-53
2022/01/18 02:49:26;;;;;;;0.30;0.20;;;;;;;5.46;46.08;95249.28;5092526;28;20480;-53
2022/01/18 02:51:57;;;;;;;0.70;0.43;;;;;;;6.25;46.75;95398.09;5092053;28;20432;-53
2022/01/18 02:54:26;;;;;;;0.30;0.20;;;;;;;6.74;53.11;95405.16;5092906;28;20458;-53
2022/01/18 02:57:25;;;;;;;0.30;0.20;;;;;;;6.72;47.64;95401.16;5092260;28;20424;-53
2022/01/18 03:05:29;;;;;;;0.30;0.20;;;;;;;6.04;42.11;95396.19;5081718;28;20444;-53
2022/01/18 03:07:59;;;;;;;0.30;0.20;;;;;;;5.81;42.32;95402.38;5092307;28;20521;-53
2022/01/18 03:10:29;;;;;;;0.30;0.20;;;;;;;6.29;43.52;95431.63;5092310;28;20906;-53
2022/01/18 03:13:15;;;;;;;0.30;0.20;;;;;;;6.20;45.71;95427.75;5091932;28;20455;-52
2022/01/18 03:15:45;;;;;;;0.30;0.20;;;;;;;6.21;44.31;95447.78;5091905;28;20489;-52
2022/01/18 03:18:15;;;;;;;0.30;0.20;;;;;;;5.98;42.18;95349.78;5092199;28;20481;-52
2022/01/18 03:20:44;;;;;;;0.30;0.20;;;;;;;6.56;40.78;95438.84;5091841;28;20432;-52
2022/01/18 03:23:16;;;;;;;0.30;0.20;;;;;;;6.65;43.33;95450.59;5092227;28;20497;-52
2022/01/18 03:28:29;;;;;;;0.30;0.20;;;;;;;6.50;42.41;95477.50;5091535;28;20491;-53
2022/01/18 03:30:59;;;;;;;0.30;0.20;;;;;;;6.05;42.35;95479.34;5092319;28;20849;-53
2022/01/18 03:33:29;;;;;;;0.40;0.40;;;;;;;6.06;49.11;95491.47;5092016;28;20435;-52
2022/01/18 03:35:58;;;;;;;0.30;0.20;;;;;;;6.18;45.40;95497.47;5092045;28;20508;-53
2022/01/18 03:38:30;;;;;;;0.30;0.20;;;;;;;5.96;45.00;95513.13;5091990;28;20485;-53
2022/01/18 03:41:00;;;;;;;0.30;0.20;;;;;;;5.71;42.65;95366.19;5091874;28;20455;-52
2022/01/18 03:43:31;;;;;;;0.30;0.20;;;;;;;1.70;43.26;94816.09;5091588;28;20435;-53
2022/01/18 03:46:03;;;;;;;0.30;0.20;;;;;;;4.06;43.53;95186.09;5091877;28;20489;-52
2022/01/18 03:48:51;;;;;;;2.63;1.33;;;;;;;5.73;46.26;95489.53;5091503;28;20487;-52
2022/01/18 03:51:21;;;;;;;0.30;0.20;;;;;;;6.14;44.48;95520.03;5091192;28;20852;-52
2022/01/18 03:53:51;;;;;;;0.30;0.20;;;;;;;5.81;40.67;95519.91;5091732;28;21005;-52
2022/01/18 03:56:20;;;;;;;0.30;0.20;;;;;;;5.62;41.20;95519.28;5091812;28;20417;-53
2022/01/18 03:58:49;;;;;;;0.30;0.20;;;;;;;5.19;40.25;95421.72;5092002;28;20428;-53
2022/01/18 04:01:17;;;;;;;0.30;0.20;;;;;;;5.63;37.79;95532.19;5091039;28;20534;-53
2022/01/18 04:03:55;;;;;;;0.30;0.20;;;;;;;5.16;36.27;95554.34;5092733;28;20475;-53
2022/01/18 04:06:24;;;;;;;0.30;0.20;;;;;;;5.38;34.82;95536.13;5095789;28;20467;-53
2022/01/18 04:08:55;;;;;;;0.30;0.20;;;;;;;5.68;34.34;95534.94;5095534;28;20469;-53
2022/01/18 04:11:24;;;;;;;0.30;0.20;;;;;;;5.14;32.46;95524.84;5095663;28;20952;-52
2022/01/18 04:13:52;;;;;;;0.30;0.20;;;;;;;5.40;32.77;95558.53;5095638;28;20481;-52
2022/01/18 04:16:21;;;;;;;0.30;0.20;;;;;;;5.37;34.35;95563.44;5095051;28;21004;-53
2022/01/18 04:18:55;;;;;;;0.30;0.20;;;;;;;5.14;32.16;95572.94;5095767;28;20440;-53
2022/01/18 04:27:12;;;;;;;0.30;0.20;;;;;;;4.95;31.51;95541.78;5061902;28;20489;-53
2022/01/18 04:29:40;;;;;;;0.30;0.20;;;;;;;5.81;30.60;95619.84;5095179;28;20479;-53
2022/01/18 04:32:10;;;;;;;0.30;0.20;;;;;;;5.64;31.45;95635.56;5095094;28;21005;-54
2022/01/18 04:34:40;;;;;;;0.30;0.20;;;;;;;5.53;31.16;95641.59;5095277;28;20868;-53
2022/01/18 04:37:10;;;;;;;0.30;0.20;;;;;;;5.68;30.74;95652.47;5095144;28;20489;-53
2022/01/18 04:39:43;;;;;;;0.30;0.20;;;;;;;5.55;31.39;95666.63;5095105;28;20436;-53
2022/01/18 04:42:17;;;;;;;0.30;0.20;;;;;;;5.76;32.03;95658.19;5094862;28;20474;-53
2022/01/18 04:50:28;;;;;;;0.67;0.47;;;;;;;5.52;31.42;95663.66;5094955;28;20487;-54
2022/01/18 04:52:57;;;;;;;0.30;0.20;;;;;;;5.14;31.12;95659.63;5094771;28;20436;-54
2022/01/18 04:55:32;;;;;;;0.43;0.40;;;;;;;5.40;30.35;95681.25;5094692;28;20460;-54
2022/01/18 04:58:17;;;;;;;0.30;0.20;;;;;;;4.88;32.17;95703.91;5094778;28;20436;-53
2022/01/18 05:00:46;;;;;;;0.30;0.20;;;;;;;5.06;31.70;95688.88;5094105;28;20506;-54
2022/01/18 05:03:15;;;;;;;0.30;0.20;;;;;;;4.94;31.21;95695.13;5094339;28;20439;-54
2022/01/18 05:05:48;;;;;;;0.30;0.20;;;;;;;5.21;31.01;95698.16;5094903;28;20432;-54
2022/01/18 05:08:18;;;;;;;0.30;0.20;;;;;;;4.13;31.05;95595.09;5094048;28;20505;-54
2022/01/18 05:16:51;;;;;;;0.30;0.20;;;;;;;4.66;33.69;95737.72;5030835;28;20463;-54
2022/01/18 05:19:26;;;;;;;0.30;0.20;;;;;;;4.69;31.99;95747.78;5087022;28;20444;-54
2022/01/18 05:24:55;;;;;;;0.63;0.60;;;;;;;4.60;31.92;95754.38;5094287;28;20432;-54
2022/01/18 05:27:25;;;;;;;3.70;0.53;;;;;;;4.46;31.65;95731.91;5094001;28;20428;-54
2022/01/18 05:29:55;;;;;;;0.73;0.73;;;;;;;4.32;32.46;95751.47;5093964;28;20472;-53
2022/01/18 05:32:24;;;;;;;0.53;0.53;;;;;;;-0.45;33.06;95082.53;5094015;28;20464;-54
2022/01/18 05:34:52;;;;;;;0.30;0.20;;;;;;;4.45;33.62;95777.56;5094267;28;20455;-54
2022/01/18 05:37:21;;;;;;;0.30;0.20;;;;;;;4.16;35.51;95801.88;5093971;28;20479;-54
2022/01/18 05:39:50;;;;;;;0.93;0.93;;;;;;;3.84;34.56;95804.59;5094135;28;20437;-54
2022/01/18 05:42:19;;;;;;;0.30;0.30;;;;;;;3.06;35.75;95703.06;5093862;28;20432;-54
2022/01/18 05:44:49;;;;;;;0.70;0.70;;;;;;;3.85;36.34;95808.03;5093285;28;20433;-54
2022/01/18 05:47:18;;;;;;;1.53;1.53;;;;;;;2.92;38.29;95706.78;5093651;28;20909;-54
2022/01/18 05:49:46;;;;;;;3.90;2.00;;;;;;;3.65;37.04;95833.59;5093599;28;20991;-55
2022/01/18 05:52:15;;;;;;;0.67;0.67;;;;;;;3.75;45.22;95771.00;5093341;28;20943;-54
2022/01/18 05:54:47;;;;;;;0.90;0.90;;;;;;;3.83;35.88;95833.66;5093916;28;20428;-54
2022/01/18 05:57:16;;;;;;;0.40;0.30;;;;;;;3.91;36.17;95841.28;5092999;28;20476;-54
2022/01/18 05:59:46;;;;;;;0.50;0.50;;;;;;;3.75;36.19;95824.25;5093371;28;20460;-54
2022/01/18 06:02:18;;;;;;;0.40;0.30;;;;;;;4.36;34.93;95847.09;5092700;28;20468;-54
2022/01/18 06:07:35;;;;;;;0.40;0.30;;;;;;;4.36;34.97;95850.53;5093235;28;20440;-54
2022/01/18 06:10:05;;;;;;;0.30;0.20;;;;;;;4.07;34.90;95866.16;5093103;28;20479;-53
2022/01/18 06:12:33;;;;;;;0.83;0.83;;;;;;;4.12;35.58;95867.13;5093176;28;20952;-53
2022/01/18 06:15:06;;;;;;;0.30;0.20;;;;;;;4.21;33.94;95886.81;5092508;28;20420;-53
2022/01/18 06:17:36;;;;;;;0.30;0.20;;;;;;;4.55;33.71;95895.16;5093147;28;20428;-53
2022/01/18 06:20:06;;;;;;;0.30;0.20;;;;;;;4.56;32.72;95894.94;5092962;28;20424;-53
2022/01/18 06:22:35;;;;;;;0.30;0.20;;;;;;;4.08;33.15;95894.78;5092650;28;20489;-52
2022/01/18 06:25:04;;;;;;;0.30;0.20;;;;;;;4.15;32.93;95894.75;5092903;28;20424;-54
2022/01/18 06:27:33;;;;;;;0.30;0.30;;;;;;;4.29;33.21;95898.84;5092540;28;20432;-54
2022/01/18 06:30:05;;;;;;;0.30;0.20;;;;;;;4.24;32.46;95902.13;5092918;28;20883;-54
2022/01/18 06:32:35;;;;;;;0.30;0.20;;;;;;;4.79;32.02;95908.25;5092817;28;20929;-53
2022/01/18 06:35:04;;;;;;;0.30;0.20;;;;;;;0.51;32.08;95207.28;5092754;28;20953;-52
2022/01/18 06:37:33;;;;;;;0.30;0.20;;;;;;;5.61;31.72;95896.31;5092576;28;20425;-51
2022/01/18 06:40:03;;;;;;;0.60;0.60;;;;;;;6.16;31.89;95863.50;5092547;28;20472;-52
2022/01/18 06:42:34;;;;;;;0.30;0.30;;;;;;;6.62;31.81;95867.97;5092477;28;20942;-52
2022/01/18 06:45:06;;;;;;;0.73;0.73;;;;;;;7.14;31.61;95899.59;5092813;28;20459;-53
2022/01/18 06:47:37;;;;;;;0.67;0.67;;;;;;;7.43;31.90;95898.59;5092068;28;20928;-52
2022/01/18 06:50:08;;;;;;;0.57;0.57;;;;;;;7.77;31.36;95891.59;5091892;28;20658;-52
2022/01/18 06:52:36;;;;;;;0.63;0.63;;;;;;;8.07;30.69;95897.38;5091756;28;20806;-51
2022/01/18 06:55:06;;;;;;;0.30;0.30;;;;;;;8.43;28.43;95896.91;5092030;28;20511;-52
2022/01/18 06:57:35;;;;;;;0.40;0.30;;;;;;;8.94;27.95;95903.72;5091215;28;20432;-52
2022/01/18 07:00:05;;;;;;;0.30;0.20;;;;;;;9.50;26.33;95887.50;5091109;28;20494;-51
2022/01/18 07:02:36;;;;;;;0.30;0.20;;;;;;;9.83;26.99;95883.06;5090977;28;21016;-51
2022/01/18 07:05:07;;;;;;;0.30;0.20;;;;;;;10.53;25.63;95909.38;5091395;28;20531;-51
2022/01/18 07:07:36;;;;;;;0.73;0.73;;;;;;;10.43;26.19;95896.84;5091423;28;20494;-51
2022/01/18 07:10:05;;;;;;;0.30;0.20;;;;;;;10.79;24.83;95916.47;5092028;28;20464;-51
2022/01/18 07:12:34;;;;;;;0.30;0.30;;;;;;;10.62;23.81;95939.69;5092257;28;20420;-51
2022/01/18 07:15:06;;;;;;;0.30;0.20;;;;;;;11.04;23.53;95903.34;5092272;28;20781;-51
2022/01/18 07:17:38;;;;;;;0.30;0.30;;;;;;;11.44;23.80;95932.72;5092397;28;20447;-51
2022/01/18 07:20:07;;;;;;;2.67;0.30;;;;;;;11.58;27.28;95941.03;5091799;28;20471;-53
2022/01/18 07:22:36;;;;;;;0.50;0.50;;;;;;;11.74;23.66;95936.59;5092121;28;20416;-53
2022/01/18 07:25:11;;;;;;;0.50;0.50;;;;;;;12.13;22.85;95934.28;5092150;28;20416;-53
2022/01/18 07:27:39;;;;;;;1.23;1.23;;;;;;;12.07;21.86;95941.44;5092228;28;20428;-54
2022/01/18 07:30:09;;;;;;;0.30;0.20;;;;;;;13.00;21.49;95950.00;5091565;28;20456;-55
2022/01/18 07:32:39;;;;;;;0.83;0.83;;;;;;;12.70;22.48;95951.59;5092114;28;20444;-55
2022/01/18 07:35:11;;;;;;;0.30;0.20;;;;;;;13.55;21.64;95947.22;5091935;28;20978;-55
2022/01/18 07:37:39;;;;;;;2.70;1.40;;;;;;;13.15;20.25;95948.16;5091204;28;20936;-56
2022/01/18 07:40:09;;;;;;;0.40;0.30;;;;;;;13.14;21.52;95943.06;5091989;28;20428;-57
2022/01/18 07:42:37;;;;;;;0.63;0.63;;;;;;;13.64;21.13;95950.09;5091787;28;20429;-57
2022/01/18 07:45:07;;;;;;;0.30;0.30;;;;;;;12.61;20.73;95937.25;5092155;28;20493;-59
2022/01/18 07:47:35;;;;;;;1.43;1.43;;;;;;;13.31;19.53;95963.00;5091880;28;21022;-60
2022/01/18 07:50:06;;;;;;;0.53;0.50;;;;;;;14.10;20.10;95966.69;5091682;28;20466;-61
2022/01/18 07:52:36;;;;;;;0.30;0.20;;;;;;;14.35;19.49;95969.22;5091989;28;20428;-62
2022/01/18 07:55:05;;;;;;;0.40;0.30;;;;;;;14.35;20.16;95958.56;5091956;28;20489;-62
2022/01/18 07:57:34;;;;;;;0.30;0.30;;;;;;;15.23;19.73;95924.44;5092112;28;20428;-62
2022/01/18 08:00:04;;;;;;;0.40;0.30;;;;;;;15.43;17.22;95974.19;5091344;28;20494;-61
2022/01/18 08:02:36;;;;;;;0.70;0.70;;;;;;;15.05;18.70;95981.25;5091340;28;20477;-62
2022/01/18 08:05:08;;;;;;;0.30;0.30;;;;;;;15.69;18.83;95970.19;5091961;28;20518;-61
2022/01/18 08:07:37;;;;;;;13.77;2.37;;;;;;;15.63;17.59;95995.38;5091822;28;20424;-61
2022/01/18 08:10:08;;;;;;;0.40;0.40;;;;;;;15.43;17.89;95995.56;5091752;28;20424;-60
2022/01/18 08:12:37;;;;;;;1.00;0.90;;;;;;;14.95;17.70;96000.78;5091625;28;20429;-59
2022/01/18 08:15:13;;;;;;;0.40;0.40;;;;;;;13.65;19.73;95997.00;5091587;28;20460;-59
2022/01/18 08:17:53;;;;;;;0.30;0.20;;;;;;;14.49;18.33;95999.56;5091339;28;20493;-57
2022/01/18 08:20:23;;;;;;;0.40;0.30;;;;;;;15.11;17.69;95996.13;5091553;28;20473;-58
2022/01/18 08:22:52;;;;;;;0.30;0.20;;;;;;;16.98;16.50;95987.38;5091875;28;20436;-58
2022/01/18 08:25:22;;;;;;;0.30;0.20;;;;;;;16.92;16.75;95991.25;5091789;28;20444;-57
2022/01/18 08:27:51;;;;;;;0.40;0.40;;;;;;;15.74;17.23;95988.81;5091459;28;20439;-56
2022/01/18 08:30:20;;;;;;;0.30;0.20;;;;;;;15.87;17.60;95996.97;5091394;28;20464;-57
2022/01/18 08:32:50;;;;;;;1.23;1.23;;;;;;;16.80;16.03;95993.56;5091670;28;20501;-56
2022/01/18 08:35:19;;;;;;;0.40;0.20;;;;;;;16.13;16.86;96002.00;5090514;28;20489;-56
2022/01/18 08:37:49;;;;;;;1.43;0.30;;;;;;;15.62;17.45;95989.25;5091448;28;20470;-56
2022/01/18 08:40:18;;;;;;;0.40;0.27;;;;;;;16.31;16.94;95995.88;5091192;28;20769;-55
2022/01/18 08:42:47;;;;;;;0.40;0.30;;;;;;;16.27;16.57;95997.53;5091357;28;20428;-68
2022/01/18 08:45:15;;;;;;;0.40;0.27;;;;;;;15.84;16.41;95996.72;5091236;28;20428;-54
2022/01/18 08:47:48;;;;;;;0.93;0.93;;;;;;;16.66;16.58;95995.41;5091214;28;20485;-54
2022/01/18 08:50:18;;;;;;;0.40;0.30;;;;;;;15.57;17.37;95988.50;5093643;28;20452;-54
2022/01/18 08:52:51;;;;;;;0.40;0.20;;;;;;;16.01;17.27;95991.72;5094850;28;20460;-54
2022/01/18 08:55:21;;;;;;;0.40;0.30;;;;;;;16.11;16.58;96004.16;5095083;28;20514;-54
2022/01/18 08:57:49;;;;;;;4.93;0.70;;;;;;;16.38;16.64;96015.03;5094846;28;20421;-54
2022/01/18 09:00:19;;;;;;;0.40;0.30;;;;;;;17.03;16.02;96015.97;5094318;28;20424;-54
2022/01/18 09:02:47;;;;;;;0.43;0.27;;;;;;;16.21;16.98;96028.91;5093678;28;20805;-54
2022/01/18 09:05:16;;;;;;;0.60;0.57;;;;;;;17.39;16.15;96011.59;5094567;28;20428;-54
2022/01/18 09:07:45;;;;;;;1.13;1.13;;;;;;;15.99;15.85;96019.84;5094549;28;20435;-54
2022/01/18 09:10:14;;;;;;;0.43;0.30;;;;;;;15.98;16.18;96012.88;5093469;28;20919;-55
2022/01/18 09:12:43;;;;;;;1.30;0.90;;;;;;;15.44;16.32;96015.84;5094494;28;20476;-55
2022/01/18 09:15:13;;;;;;;0.53;0.53;;;;;;;16.08;16.12;96018.09;5094362;28;20920;-56
2022/01/18 09:17:42;;;;;;;0.40;0.20;;;;;;;15.88;15.91;96013.81;5094376;28;20429;-55
2022/01/18 09:20:13;;;;;;;0.40;0.40;;;;;;;16.79;15.73;96008.06;5094578;28;20436;-55
2022/01/18 09:22:44;;;;;;;0.43;0.37;;;;;;;15.06;16.14;95988.97;5094357;28;20432;-55
2022/01/18 09:25:30;;;;;;;0.40;0.30;;;;;;;17.17;14.63;96000.75;5094603;28;20428;-55
2022/01/18 09:27:59;;;;;;;0.73;0.73;;;;;;;15.61;15.33;96014.34;5094468;28;20464;-55
2022/01/18 09:30:30;;;;;;;0.70;0.40;;;;;;;16.10;17.94;96005.25;5094541;28;20417;-55
2022/01/18 09:32:59;;;;;;;0.50;0.43;;;;;;;16.18;15.13;95994.72;5094004;28;20529;-55
2022/01/18 09:35:29;;;;;;;0.60;0.40;;;;;;;16.33;15.40;96007.88;5094456;28;20440;-56
2022/01/18 09:37:57;;;;;;;0.37;0.20;;;;;;;16.12;15.27;96006.53;5093972;28;20949;-55
2022/01/18 09:40:28;;;;;;;0.37;0.30;;;;;;;14.38;16.16;96003.34;5093943;28;20485;-55
2022/01/18 09:43:00;;;;;;;0.30;0.20;;;;;;;15.76;15.87;95995.47;5094017;28;20551;-55
2022/01/18 09:45:31;;;;;;;0.50;0.40;;;;;;;16.45;14.36;95984.16;5093795;28;20420;-55
2022/01/18 09:48:00;;;;;;;0.60;0.40;;;;;;;17.48;13.98;95974.22;5094113;28;20485;-64
2022/01/18 09:50:33;;;;;;;0.57;0.40;;;;;;;18.50;12.83;95952.28;5093623;28;20452;-52
2022/01/18 09:53:03;;;;;;;0.40;0.30;;;;;;;18.27;12.12;95975.56;5093735;28;20460;-52
2022/01/18 09:55:36;;;;;;;0.40;0.20;;;;;;;17.50;11.91;95972.81;5093702;28;20420;-52
2022/01/18 09:58:07;;;;;;;2.47;0.27;;;;;;;17.46;13.44;95971.81;5093643;28;20428;-53
2022/01/18 10:00:39;;;;;;;0.40;0.30;;;;;;;17.27;13.39;95976.47;5093207;28;20428;-52
2022/01/18 10:03:27;;;;;;;0.50;0.30;;;;;;;15.87;12.60;95964.88;5093383;28;20434;-52
2022/01/18 10:05:56;;;;;;;0.87;0.87;;;;;;;16.63;12.48;95965.72;5093349;28;20433;-52
2022/01/18 10:08:24;;;;;;;0.40;0.20;;;;;;;16.72;12.90;95967.44;5093325;28;20994;-53
2022/01/18 10:10:57;;;;;;;0.40;0.30;;;;;;;15.85;13.40;95958.22;5093401;28;20948;-52
2022/01/18 10:13:27;;;;;;;0.50;0.30;;;;;;;15.94;13.28;95951.16;5093258;28;20529;-52
2022/01/18 10:16:05;;;;;;;1.70;0.47;;;;;;;16.98;12.73;95939.19;5093306;28;20424;-52
2022/01/18 10:18:39;;;;;;;2.97;2.57;;;;;;;16.74;12.80;95951.09;5092873;28;20435;-53
2022/01/18 10:21:08;;;;;;;0.93;0.93;;;;;;;16.48;13.64;95945.31;5092763;28;20428;-52
2022/01/18 10:23:37;;;;;;;2.20;1.20;;;;;;;17.21;12.61;95942.78;5093487;28;20846;-52
2022/01/18 10:26:21;;;;;;;12.27;2.87;;;;;;;17.40;13.15;95930.13;5092887;28;20921;-53
2022/01/18 10:29:00;;;;;;;0.90;0.90;;;;;;;16.83;13.36;95942.13;5092647;28;20490;-52
2022/01/18 10:31:37;;;;;;;0.40;0.30;;;;;;;16.86;12.88;95938.06;5092932;28;20470;-52
2022/01/18 10:34:24;;;;;;;0.40;0.30;;;;;;;17.19;12.84;95928.09;5092178;28;20436;-52
2022/01/18 10:36:58;;;;;;;0.67;0.30;;;;;;;16.12;12.92;95926.31;5092850;28;20424;-52
2022/01/18 10:39:33;;;;;;;0.60;0.30;;;;;;;15.53;14.53;95916.13;5092428;28;20523;-53
2022/01/18 10:42:15;;;;;;;0.40;0.20;;;;;;;17.29;13.26;95928.72;5092815;28;20481;-52
2022/01/18 10:44:45;;;;;;;0.40;0.30;;;;;;;16.52;12.90;95936.44;5092713;28;20502;-53
2022/01/18 10:47:14;;;;;;;0.40;0.27;;;;;;;17.03;12.36;95927.56;5092671;28;20467;-52
2022/01/18 10:49:47;;;;;;;1.40;1.40;;;;;;;17.17;13.19;95931.09;5092680;28;20425;-52
2022/01/18 10:52:21;;;;;;;0.40;0.30;;;;;;;17.11;12.32;95911.63;5092235;28;20578;-52
2022/01/18 10:54:50;;;;;;;0.40;0.30;;;;;;;18.09;12.13;95914.81;5092908;28;20423;-52
2022/01/18 10:57:22;;;;;;;0.40;0.20;;;;;;;17.77;12.80;95905.81;5092501;28;20964;-52
2022/01/18 10:59:56;;;;;;;0.40;0.27;;;;;;;18.38;12.06;95904.47;5092823;28;20470;-52
2022/01/18 11:02:25;;;;;;;0.40;0.40;;;;;;;18.38;12.08;95901.81;5091223;28;20917;-52
2022/01/18 11:04:55;;;;;;;1.37;0.27;;;;;;;18.69;11.82;95899.22;5092394;28;20527;-52
2022/01/18 11:07:26;;;;;;;0.50;0.43;;;;;;;18.74;11.57;95891.84;5090613;28;20433;-52
2022/01/18 11:09:55;;;;;;;0.40;0.20;;;;;;;19.29;11.27;95881.53;5090972;28;20495;-52
2022/01/18 11:12:28;;;;;;;0.50;0.30;;;;;;;18.15;12.15;95881.41;5090844;28;20464;-52
2022/01/18 11:15:07;;;;;;;0.40;0.20;;;;;;;18.45;12.08;95885.25;5091367;28;20485;-52
2022/01/18 11:17:40;;;;;;;0.30;0.20;;;;;;;19.16;11.63;95881.63;5091660;28;20943;-52
2022/01/18 11:20:10;;;;;;;0.40;0.30;;;;;;;17.56;12.41;95875.16;5091551;28;20421;-52
2022/01/18 11:22:39;;;;;;;0.40;0.40;;;;;;;16.99;11.58;95878.38;5092348;28;20432;-52
2022/01/18 11:25:08;;;;;;;0.40;0.30;;;;;;;18.17;11.96;95865.78;5092050;28;20849;-52
2022/01/18 11:27:42;;;;;;;0.40;0.27;;;;;;;19.19;12.01;95868.38;5092151;28;20495;-52
2022/01/18 11:30:11;;;;;;;0.40;0.20;;;;;;;19.11;10.40;95850.31;5092535;28;20479;-54
2022/01/18 11:32:41;;;;;;;0.30;0.30;;;;;;;19.20;11.02;95842.28;5091992;28;20475;-53
2022/01/18 11:35:14;;;;;;;0.93;0.67;;;;;;;19.35;10.98;95850.72;5092008;28;20478;-52
2022/01/18 11:37:51;;;;;;;1.50;1.23;;;;;;;20.64;10.48;95850.91;5091957;28;20928;-53
2022/01/18 11:40:19;;;;;;;0.50;0.30;;;;;;;19.67;10.29;95771.56;5092009;28;20485;-52
2022/01/18 11:42:52;;;;;;;0.40;0.30;;;;;;;18.60;10.29;95856.19;5091961;28;20926;-53
2022/01/18 11:45:39;;;;;;;0.80;0.40;;;;;;;18.16;11.36;95861.53;5092229;28;20497;-52
2022/01/18 11:48:12;;;;;;;0.30;0.20;;;;;;;19.11;10.11;95854.88;5092073;28;20424;-52
2022/01/18 11:50:43;;;;;;;2.40;0.30;;;;;;;18.57;10.41;95851.44;5091819;28;20509;-52
2022/01/18 11:53:36;;;;;;;0.30;0.20;;;;;;;17.87;11.24;95807.47;5091755;28;20481;-52
2022/01/18 11:56:07;;;;;;;0.40;0.30;;;;;;;19.45;10.70;95837.03;5091991;28;20468;-52
2022/01/18 11:58:37;;;;;;;0.40;0.20;;;;;;;19.79;10.71;95819.34;5091854;28;20428;-52
2022/01/18 12:01:05;;;;;;;0.40;0.30;;;;;;;19.93;12.24;95828.88;5091397;28;20513;-52
2022/01/18 12:03:44;;;;;;;0.30;0.20;;;;;;;20.97;12.49;95814.19;5091586;28;20444;-52
2022/01/18 12:06:13;;;;;;;0.50;0.40;;;;;;;21.80;12.23;95733.47;5091821;28;20431;-53
2022/01/18 12:08:42;;;;;;;0.50;0.40;;;;;;;20.98;13.53;95831.13;5090842;28;20436;-52
2022/01/18 12:11:14;;;;;;;0.50;0.40;;;;;;;18.90;14.38;95847.34;5091242;28;20424;-51
2022/01/18 12:13:47;;;;;;;1.03;0.43;;;;;;;20.12;15.49;95848.19;5091944;28;20463;-53
2022/01/18 12:16:25;;;;;;;0.40;0.40;;;;;;;18.68;15.91;95852.78;5090937;28;20444;-52
2022/01/18 12:18:58;;;;;;;0.97;0.30;;;;;;;17.96;16.22;95845.91;5091253;28;20519;-52
2022/01/18 12:21:29;;;;;;;0.40;0.30;;;;;;;18.43;16.90;95858.72;5091953;28;20481;-51
2022/01/18 12:24:01;;;;;;;0.70;0.40;;;;;;;17.78;17.75;95869.84;5091503;28;20490;-51
2022/01/18 12:26:38;;;;;;;0.40;0.30;;;;;;;16.68;17.20;95870.09;5095230;28;20459;-51
2022/01/18 12:35:02;;;;;;;0.67;0.67;;;;;;;15.92;18.42;95870.44;5095156;28;20519;-52
2022/01/18 12:37:44;;;;;;;0.67;0.60;;;;;;;14.97;18.92;95845.69;5095200;28;20936;-53
2022/01/18 12:40:35;;;;;;;1.47;1.37;;;;;;;15.14;19.47;95878.88;5095002;28;20436;-53
2022/01/18 12:45:59;;;;;;;0.40;0.20;;;;;;;14.76;19.61;95881.66;5094861;28;20440;-53
2022/01/18 12:48:28;;;;;;;1.13;0.87;;;;;;;15.76;18.90;95887.78;5094807;28;20440;-53
2022/01/18 12:50:58;;;;;;;0.40;0.20;;;;;;;14.98;19.04;95898.00;5095134;28;20463;-53
2022/01/18 12:53:34;;;;;;;0.93;0.83;;;;;;;14.46;19.30;95910.22;5094870;28;20468;-53
2022/01/18 12:56:04;;;;;;;0.60;0.33;;;;;;;14.09;18.90;95903.78;5094601;28;20507;-53
2022/01/18 12:58:35;;;;;;;0.60;0.60;;;;;;;13.46;19.89;95906.22;5094541;28;20429;-53
2022/01/18 13:01:06;;;;;;;0.60;0.50;;;;;;;13.70;20.27;95906.41;5094451;28;20503;-53
2022/01/18 13:03:37;;;;;;;1.17;0.73;;;;;;;15.33;19.29;95907.53;5094490;28;20432;-53
2022/01/18 13:06:08;;;;;;;0.43;0.27;;;;;;;14.99;19.29;95792.81;5094934;28;20432;-53
2022/01/18 13:08:46;;;;;;;0.60;0.30;;;;;;;15.33;19.09;95902.19;5094311;28;20424;-53
2022/01/18 13:11:16;;;;;;;0.40;0.40;;;;;;;16.44;19.12;95901.50;5094805;28;20456;-52
2022/01/18 13:13:53;;;;;;;0.40;0.30;;;;;;;17.02;18.35;95904.59;5094452;28;20464;-54
2022/01/18 13:27:33;;;;;;;0.67;0.67;;;;;;;15.25;19.03;95904.38;5092611;28;20436;-54
2022/01/18 13:30:13;;;;;;;3.30;1.10;;;;;;;14.51;19.48;95904.03;5091664;28;20432;-53
2022/01/18 13:32:45;;;;;;;1.60;1.60;;;;;;;15.24;19.28;95910.81;5092180;28;20432;-54